Time;durP1;ratioP1;P1;durP2;ratioP2;P2;SDS_P1;SDS_P2;PMS_P1;PMS_P2;Temp;Humidity;BMP_temperature;BMP_pressure;BME280_temperature;BME280_humidity;BME280_pressure;Samples;Min_cycle;Max_cycle;Signal;HPM_P1;HPM_P2
2022/07/11 00:01:05;;;;;;;2.90;1.77;;;;;;;;;;5051727;28;20416;-77
2022/07/11 00:03:31;;;;;;;7.03;2.03;;;;;;;;;;5051213;28;20413;-77
2022/07/11 00:05:57;;;;;;;5.33;2.30;;;;;;;;;;5051822;28;20432;-77
2022/07/11 00:08:23;;;;;;;5.73;1.70;;;;;;;;;;5051722;28;20420;-76
2022/07/11 00:10:49;;;;;;;4.97;2.60;;;;;;;;;;5051654;28;20420;-77
2022/07/11 00:13:15;;;;;;;3.50;2.20;;;;;;;;;;5051091;28;20394;-77
2022/07/11 00:15:41;;;;;;;3.40;2.50;;;;;;;;;;5051770;28;20917;-76
2022/07/11 00:18:07;;;;;;;3.73;2.13;;;;;;;;;;5051232;28;20395;-77
2022/07/11 00:20:34;;;;;;;2.53;2.30;;;;;;;;;;5051303;28;20405;-77
2022/07/11 00:23:00;;;;;;;4.57;2.20;;;;;;;;;;5051177;28;20452;-77
2022/07/11 00:25:26;;;;;;;3.87;2.30;;;;;;;;;;5051354;28;20423;-76
2022/07/11 00:27:52;;;;;;;3.77;2.47;;;;;;;;;;5051451;28;20395;-76
2022/07/11 00:30:19;;;;;;;4.43;2.77;;;;;;;;;;5051298;28;20976;-76
2022/07/11 00:32:45;;;;;;;2.47;2.07;;;;;;;;;;5051135;28;20432;-77
2022/07/11 00:35:11;;;;;;;7.10;1.90;;;;;;;;;;5050564;28;20442;-78
2022/07/11 00:37:37;;;;;;;3.23;2.13;;;;;;;;;;5051404;28;20387;-76
2022/07/11 00:40:03;;;;;;;4.03;2.47;;;;;;;;;;5051110;28;20447;-76
2022/07/11 00:42:29;;;;;;;5.93;2.33;;;;;;;;;;5051085;28;20383;-77
2022/07/11 00:44:55;;;;;;;5.00;2.20;;;;;;;;;;5050723;28;20892;-77
2022/07/11 00:47:21;;;;;;;4.87;2.70;;;;;;;;;;5050884;28;20401;-77
2022/07/11 00:49:47;;;;;;;5.43;3.30;;;;;;;;;;5051132;28;20409;-77
2022/07/11 00:52:13;;;;;;;3.10;2.40;;;;;;;;;;5051118;28;20485;-77
2022/07/11 00:54:40;;;;;;;3.30;2.20;;;;;;;;;;5050429;28;20435;-76
2022/07/11 00:57:06;;;;;;;9.60;4.30;;;;;;;;;;5050762;28;20883;-77
2022/07/11 00:59:32;;;;;;;9.23;3.07;;;;;;;;;;5050697;28;20419;-76
2022/07/11 01:01:58;;;;;;;10.13;3.43;;;;;;;;;;5050858;28;20431;-77
2022/07/11 01:04:24;;;;;;;4.10;2.80;;;;;;;;;;5050601;28;20405;-76
2022/07/11 01:06:50;;;;;;;3.87;2.90;;;;;;;;;;5050877;28;20466;-76
2022/07/11 01:09:16;;;;;;;2.83;2.57;;;;;;;;;;5050878;28;20944;-76
2022/07/11 01:11:42;;;;;;;3.53;2.73;;;;;;;;;;5049648;28;20434;-77
2022/07/11 01:14:08;;;;;;;8.83;3.00;;;;;;;;;;5049192;28;20545;-76
2022/07/11 01:16:34;;;;;;;7.30;2.70;;;;;;;;;;5049719;28;20854;-77
2022/07/11 01:19:00;;;;;;;4.60;2.70;;;;;;;;;;5050626;28;20407;-76
2022/07/11 01:21:30;;;;;;;4.60;2.83;;;;;;;;;;5050406;28;20393;-77
2022/07/11 01:23:58;;;;;;;3.07;2.77;;;;;;;;;;5050190;28;20395;-76
2022/07/11 01:26:25;;;;;;;3.53;3.10;;;;;;;;;;5050379;28;20429;-76
2022/07/11 01:28:51;;;;;;;6.10;3.30;;;;;;;;;;5050190;28;20483;-76
2022/07/11 01:31:17;;;;;;;4.93;2.70;;;;;;;;;;5049947;28;20419;-76
2022/07/11 01:33:43;;;;;;;7.00;2.67;;;;;;;;;;5049446;28;20434;-76
2022/07/11 01:36:10;;;;;;;4.20;2.43;;;;;;;;;;5049973;28;20976;-76
2022/07/11 01:38:36;;;;;;;6.33;3.40;;;;;;;;;;5049939;28;20421;-76
2022/07/11 01:41:02;;;;;;;4.20;2.73;;;;;;;;;;5049808;28;20746;-76
2022/07/11 01:43:28;;;;;;;3.73;3.10;;;;;;;;;;5049353;28;20448;-76
2022/07/11 01:45:55;;;;;;;7.50;3.20;;;;;;;;;;5049472;28;20490;-77
2022/07/11 01:48:22;;;;;;;5.63;2.93;;;;;;;;;;5048621;28;20415;-76
2022/07/11 01:50:48;;;;;;;5.70;2.60;;;;;;;;;;5049598;28;20899;-77
2022/07/11 01:53:14;;;;;;;4.47;3.13;;;;;;;;;;5049305;28;20437;-76
2022/07/11 01:55:40;;;;;;;5.47;2.73;;;;;;;;;;5049744;28;20455;-76
2022/07/11 01:58:07;;;;;;;5.30;2.90;;;;;;;;;;5049812;28;20408;-77
2022/07/11 02:00:33;;;;;;;3.50;2.73;;;;;;;;;;5049914;28;20384;-76
2022/07/11 02:02:59;;;;;;;5.13;3.17;;;;;;;;;;5049389;28;20386;-77
2022/07/11 02:05:25;;;;;;;7.63;2.97;;;;;;;;;;5049583;28;20411;-76
2022/07/11 02:10:35;;;;;;;6.33;3.80;;;;;;;;;;5049552;28;20374;-76
2022/07/11 02:13:02;;;;;;;3.87;3.47;;;;;;;;;;5049050;28;20451;-76
2022/07/11 02:15:29;;;;;;;5.20;2.90;;;;;;;;;;5049247;28;20544;-76
2022/07/11 02:17:55;;;;;;;5.37;3.77;;;;;;;;;;5049281;28;20383;-76
2022/07/11 02:20:21;;;;;;;4.40;3.10;;;;;;;;;;5049280;28;20385;-76
2022/07/11 02:22:50;;;;;;;8.77;3.30;;;;;;;;;;5049293;28;20375;-76
2022/07/11 02:25:16;;;;;;;4.23;2.80;;;;;;;;;;5048989;28;20444;-77
2022/07/11 02:27:43;;;;;;;5.10;3.43;;;;;;;;;;5050239;28;20424;-77
2022/07/11 02:30:09;;;;;;;5.67;3.10;;;;;;;;;;5052507;28;20420;-76
2022/07/11 02:32:35;;;;;;;4.70;3.33;;;;;;;;;;5052563;28;20403;-76
2022/07/11 02:35:01;;;;;;;4.83;3.30;;;;;;;;;;5052108;28;20468;-76
2022/07/11 02:37:27;;;;;;;4.83;3.63;;;;;;;;;;5051571;28;20456;-76
2022/07/11 02:39:53;;;;;;;4.63;3.53;;;;;;;;;;5052479;28;20919;-77
2022/07/11 02:42:19;;;;;;;4.47;3.03;;;;;;;;;;5052481;28;20380;-76
2022/07/11 02:44:46;;;;;;;5.17;2.80;;;;;;;;;;5050767;28;20421;-76
2022/07/11 02:47:14;;;;;;;4.17;3.63;;;;;;;;;;5051180;28;20416;-76
2022/07/11 02:49:40;;;;;;;3.50;3.20;;;;;;;;;;5052590;28;20462;-76
2022/07/11 02:52:06;;;;;;;4.20;3.30;;;;;;;;;;5052348;28;20411;-77
2022/07/11 02:54:32;;;;;;;5.37;3.40;;;;;;;;;;5051819;28;20529;-76
2022/07/11 02:56:58;;;;;;;4.90;3.27;;;;;;;;;;5052369;28;20436;-76
2022/07/11 02:59:24;;;;;;;4.73;3.57;;;;;;;;;;5052325;28;20772;-76
2022/07/11 03:01:50;;;;;;;6.60;3.30;;;;;;;;;;5052219;28;20474;-76
2022/07/11 03:04:17;;;;;;;9.27;3.60;;;;;;;;;;5051698;28;20408;-76
2022/07/11 03:06:43;;;;;;;6.83;3.73;;;;;;;;;;5051961;28;20432;-76
2022/07/11 03:09:09;;;;;;;6.70;3.60;;;;;;;;;;5052040;28;20420;-77
2022/07/11 03:11:36;;;;;;;5.50;3.40;;;;;;;;;;5051040;28;20785;-76
2022/07/11 03:14:02;;;;;;;4.00;3.37;;;;;;;;;;5051886;28;20847;-76
2022/07/11 03:16:28;;;;;;;5.07;4.20;;;;;;;;;;5052048;28;20794;-76
2022/07/11 03:18:54;;;;;;;3.80;3.43;;;;;;;;;;5052096;28;20405;-76
2022/07/11 03:21:21;;;;;;;5.50;3.93;;;;;;;;;;5052072;28;20408;-76
2022/07/11 03:23:47;;;;;;;6.87;4.00;;;;;;;;;;5051449;28;20413;-76
2022/07/11 03:26:13;;;;;;;3.73;3.30;;;;;;;;;;5051780;28;20485;-76
2022/07/11 03:28:39;;;;;;;7.67;4.10;;;;;;;;;;5051958;28;20398;-76
2022/07/11 03:31:05;;;;;;;4.33;3.00;;;;;;;;;;5051791;28;20834;-76
2022/07/11 03:33:31;;;;;;;5.40;3.97;;;;;;;;;;5051339;28;20616;-76
2022/07/11 03:35:56;;;;;;;6.43;3.27;;;;;;;;;;5051704;28;20424;-76
2022/07/11 03:38:22;;;;;;;5.17;4.23;;;;;;;;;;5049383;28;20901;-77
2022/07/11 03:40:49;;;;;;;4.80;4.40;;;;;;;;;;5051560;28;20427;-76
2022/07/11 03:43:18;;;;;;;11.10;4.87;;;;;;;;;;5051331;28;20959;-76
2022/07/11 03:45:44;;;;;;;10.10;3.93;;;;;;;;;;5051274;28;20507;-77
2022/07/11 03:48:10;;;;;;;9.03;4.90;;;;;;;;;;5050127;28;20456;-76
2022/07/11 03:50:36;;;;;;;7.50;4.20;;;;;;;;;;5051444;28;20871;-77
2022/07/11 03:53:02;;;;;;;7.27;4.03;;;;;;;;;;5051079;28;20431;-77
2022/07/11 03:55:28;;;;;;;6.20;4.40;;;;;;;;;;5051356;28;20460;-76
2022/07/11 03:57:55;;;;;;;8.30;4.23;;;;;;;;;;5051321;28;20785;-76
2022/07/11 04:00:21;;;;;;;9.70;4.70;;;;;;;;;;5051749;28;20449;-76
2022/07/11 04:02:48;;;;;;;6.33;5.00;;;;;;;;;;5049743;28;20980;-77
2022/07/11 04:05:14;;;;;;;5.10;4.60;;;;;;;;;;5051117;28;20802;-76
2022/07/11 04:07:41;;;;;;;7.07;4.47;;;;;;;;;;5051260;28;20593;-76
2022/07/11 04:10:08;;;;;;;7.90;4.33;;;;;;;;;;5049756;28;20428;-76
2022/07/11 04:12:34;;;;;;;10.13;4.03;;;;;;;;;;5049834;28;20441;-76
2022/07/11 04:15:00;;;;;;;8.20;4.13;;;;;;;;;;5050622;28;20471;-76
2022/07/11 04:17:26;;;;;;;10.97;5.33;;;;;;;;;;5049835;28;20948;-76
2022/07/11 04:19:53;;;;;;;10.07;5.13;;;;;;;;;;5051031;28;20475;-77
2022/07/11 04:22:19;;;;;;;5.10;4.17;;;;;;;;;;5051223;28;20399;-76
2022/07/11 04:24:45;;;;;;;9.90;5.20;;;;;;;;;;5050667;28;20416;-76
2022/07/11 04:27:11;;;;;;;8.17;4.30;;;;;;;;;;5050824;28;20476;-76
2022/07/11 04:29:37;;;;;;;9.20;5.23;;;;;;;;;;5050848;28;20420;-76
2022/07/11 04:32:03;;;;;;;14.03;6.10;;;;;;;;;;5050695;28;20419;-76
2022/07/11 04:34:29;;;;;;;5.33;4.30;;;;;;;;;;5050243;28;20466;-76
2022/07/11 04:36:55;;;;;;;6.87;5.07;;;;;;;;;;5050477;28;20496;-76
2022/07/11 04:39:21;;;;;;;9.33;5.50;;;;;;;;;;5050703;28;20408;-76
2022/07/11 04:41:47;;;;;;;6.40;5.30;;;;;;;;;;5049665;28;20796;-76
2022/07/11 04:44:13;;;;;;;8.90;6.00;;;;;;;;;;5050221;28;20429;-76
2022/07/11 04:46:39;;;;;;;5.93;5.33;;;;;;;;;;5050493;28;20797;-76
2022/07/11 04:49:05;;;;;;;8.70;4.97;;;;;;;;;;5049195;28;20662;-76
2022/07/11 04:51:31;;;;;;;6.53;5.20;;;;;;;;;;5049287;28;20465;-76
2022/07/11 04:53:57;;;;;;;8.00;5.53;;;;;;;;;;5050492;28;20555;-76
2022/07/11 04:56:23;;;;;;;10.30;5.47;;;;;;;;;;5050706;28;20429;-76
2022/07/11 04:58:49;;;;;;;9.53;6.27;;;;;;;;;;5050560;28;20379;-76
2022/07/11 05:01:15;;;;;;;9.80;5.40;;;;;;;;;;5050414;28;20444;-77
2022/07/11 05:03:41;;;;;;;10.03;4.50;;;;;;;;;;5050161;28;20442;-76
2022/07/11 05:06:07;;;;;;;10.87;5.37;;;;;;;;;;5050215;28;20447;-76
2022/07/11 05:08:36;;;;;;;11.03;5.30;;;;;;;;;;5050327;28;20413;-77
2022/07/11 05:11:02;;;;;;;8.33;5.10;;;;;;;;;;5050112;28;20383;-77
2022/07/11 05:13:28;;;;;;;11.33;5.60;;;;;;;;;;5049849;28;20849;-77
2022/07/11 05:15:54;;;;;;;10.97;6.07;;;;;;;;;;5050232;28;20516;-76
2022/07/11 05:18:20;;;;;;;6.77;6.07;;;;;;;;;;5050122;28;20408;-76
2022/07/11 05:20:48;;;;;;;8.13;5.57;;;;;;;;;;5050221;28;20440;-76
2022/07/11 05:23:14;;;;;;;11.87;5.03;;;;;;;;;;5049967;28;20412;-77
2022/07/11 05:25:40;;;;;;;5.63;5.10;;;;;;;;;;5049927;28;20457;-76
2022/07/11 05:28:06;;;;;;;7.97;5.90;;;;;;;;;;5049860;28;20412;-76
2022/07/11 05:30:33;;;;;;;12.20;5.70;;;;;;;;;;5049924;28;20418;-76
2022/07/11 05:32:59;;;;;;;11.37;5.27;;;;;;;;;;5049535;28;20577;-76
2022/07/11 05:35:25;;;;;;;7.33;5.37;;;;;;;;;;5049561;28;20545;-76
2022/07/11 05:37:51;;;;;;;6.77;4.20;;;;;;;;;;5049935;28;20412;-76
2022/07/11 05:40:17;;;;;;;9.80;4.70;;;;;;;;;;5049833;28;20748;-76
2022/07/11 05:42:43;;;;;;;10.60;4.80;;;;;;;;;;5049852;28;20721;-76
2022/07/11 05:45:09;;;;;;;6.17;4.70;;;;;;;;;;5049335;28;20419;-76
2022/07/11 05:47:35;;;;;;;9.53;5.00;;;;;;;;;;5049411;28;20409;-76
2022/07/11 05:50:01;;;;;;;9.93;5.57;;;;;;;;;;5049688;28;20748;-76
2022/07/11 05:52:27;;;;;;;6.90;4.77;;;;;;;;;;5049818;28;20404;-76
2022/07/11 05:54:54;;;;;;;6.83;4.43;;;;;;;;;;5047972;28;20474;-76
2022/07/11 05:57:20;;;;;;;8.50;4.60;;;;;;;;;;5049724;28;20405;-77
2022/07/11 05:59:46;;;;;;;5.27;3.63;;;;;;;;;;5049685;28;20435;-76
2022/07/11 06:02:12;;;;;;;10.03;3.90;;;;;;;;;;5051723;28;20416;-76
2022/07/11 06:04:38;;;;;;;8.87;3.17;;;;;;;;;;5053072;28;20404;-76
2022/07/11 06:07:05;;;;;;;7.30;4.40;;;;;;;;;;5053328;28;20461;-76
2022/07/11 06:09:31;;;;;;;3.63;3.17;;;;;;;;;;5052982;28;20411;-76
2022/07/11 06:11:57;;;;;;;10.43;3.57;;;;;;;;;;5053153;28;20463;-77
2022/07/11 06:14:24;;;;;;;5.03;3.80;;;;;;;;;;5052933;28;20463;-76
2022/07/11 06:16:50;;;;;;;4.60;3.60;;;;;;;;;;5053030;28;20797;-76
2022/07/11 06:19:16;;;;;;;3.50;3.20;;;;;;;;;;5053092;28;20413;-76
2022/07/11 06:21:42;;;;;;;4.50;3.80;;;;;;;;;;5052854;28;20408;-76
2022/07/11 06:24:08;;;;;;;7.40;3.10;;;;;;;;;;5052704;28;20469;-76
2022/07/11 06:26:34;;;;;;;5.43;3.10;;;;;;;;;;5052882;28;20439;-76
2022/07/11 06:29:00;;;;;;;5.87;3.57;;;;;;;;;;5053013;28;20408;-76
2022/07/11 06:31:26;;;;;;;8.07;3.37;;;;;;;;;;5052821;28;20425;-76
2022/07/11 06:33:57;;;;;;;8.67;3.53;;;;;;;;;;5052393;28;21199;-76
2022/07/11 06:36:23;;;;;;;3.73;3.20;;;;;;;;;;5053130;28;20433;-76
2022/07/11 06:38:50;;;;;;;5.67;3.10;;;;;;;;;;5052919;28;20412;-76
2022/07/11 06:41:16;;;;;;;6.30;2.87;;;;;;;;;;5052656;28;20855;-76
2022/07/11 06:43:42;;;;;;;5.00;3.40;;;;;;;;;;5052064;28;20488;-76
2022/07/11 06:46:07;;;;;;;3.43;3.13;;;;;;;;;;5051161;28;20894;-77
2022/07/11 06:48:33;;;;;;;5.00;3.90;;;;;;;;;;5052693;28;20424;-76
2022/07/11 06:51:00;;;;;;;5.27;3.17;;;;;;;;;;5051364;28;20499;-76
2022/07/11 06:53:26;;;;;;;2.93;2.63;;;;;;;;;;5052215;28;20416;-76
2022/07/11 06:55:52;;;;;;;7.70;3.40;;;;;;;;;;5052329;28;20476;-77
2022/07/11 06:58:32;;;;;;;4.50;3.40;;;;;;;;;;5052537;28;20462;-76
2022/07/11 07:00:59;;;;;;;4.87;3.10;;;;;;;;;;5036941;28;20473;-76
2022/07/11 07:03:26;;;;;;;4.33;3.40;;;;;;;;;;5052002;28;20404;-76
2022/07/11 07:05:55;;;;;;;5.13;3.10;;;;;;;;;;5052481;28;20806;-76
2022/07/11 07:08:20;;;;;;;3.37;3.07;;;;;;;;;;5052297;28;20397;-76
2022/07/11 07:10:46;;;;;;;6.03;3.70;;;;;;;;;;5052291;28;20413;-76
2022/07/11 07:13:12;;;;;;;3.80;3.30;;;;;;;;;;5050819;28;20400;-76
2022/07/11 07:15:38;;;;;;;7.63;3.87;;;;;;;;;;5052008;28;20572;-76
2022/07/11 07:18:04;;;;;;;3.83;3.10;;;;;;;;;;5051979;28;20745;-77
2022/07/11 07:20:30;;;;;;;2.73;2.53;;;;;;;;;;5052294;28;20434;-76
2022/07/11 07:22:56;;;;;;;3.87;3.37;;;;;;;;;;5050819;28;20810;-77
2022/07/11 07:25:22;;;;;;;5.23;3.47;;;;;;;;;;5052200;28;20480;-76
2022/07/11 07:27:48;;;;;;;8.13;3.33;;;;;;;;;;5051930;28;20412;-76
2022/07/11 07:30:14;;;;;;;5.83;3.23;;;;;;;;;;5051903;28;20895;-77
2022/07/11 07:32:40;;;;;;;7.60;2.30;;;;;;;;;;5051726;28;20440;-76
2022/07/11 07:35:06;;;;;;;7.87;3.07;;;;;;;;;;5051417;28;20468;-76
2022/07/11 07:37:32;;;;;;;5.63;2.57;;;;;;;;;;5051886;28;20779;-76
2022/07/11 07:39:58;;;;;;;3.07;2.73;;;;;;;;;;5051634;28;20416;-76
2022/07/11 07:42:24;;;;;;;3.70;2.73;;;;;;;;;;5051531;28;20975;-76
2022/07/11 07:44:50;;;;;;;6.00;3.23;;;;;;;;;;5051306;28;20417;-76
2022/07/11 07:47:16;;;;;;;6.80;3.37;;;;;;;;;;5051676;28;20464;-76
2022/07/11 07:49:42;;;;;;;5.27;3.10;;;;;;;;;;5051520;28;20431;-76
2022/07/11 07:52:08;;;;;;;3.30;2.37;;;;;;;;;;5051466;28;20408;-77
2022/07/11 07:54:34;;;;;;;6.83;2.60;;;;;;;;;;5050795;28;20442;-76
2022/07/11 07:57:00;;;;;;;4.57;2.33;;;;;;;;;;5051238;28;20425;-76
2022/07/11 07:59:26;;;;;;;3.67;2.90;;;;;;;;;;5051629;28;20411;-76
2022/07/11 08:01:52;;;;;;;4.40;2.67;;;;;;;;;;5051643;28;20383;-76
2022/07/11 08:04:19;;;;;;;2.90;2.33;;;;;;;;;;5049573;28;20500;-77
2022/07/11 08:06:45;;;;;;;4.77;2.97;;;;;;;;;;5051083;28;20411;-76
2022/07/11 08:09:12;;;;;;;7.43;2.87;;;;;;;;;;5051105;28;20383;-76
2022/07/11 08:11:38;;;;;;;2.70;2.40;;;;;;;;;;5051137;28;20379;-75
2022/07/11 08:14:04;;;;;;;8.73;2.53;;;;;;;;;;5051052;28;20460;-76
2022/07/11 08:16:31;;;;;;;4.77;2.30;;;;;;;;;;5051006;28;20435;-77
2022/07/11 08:19:01;;;;;;;6.73;2.90;;;;;;;;;;5051114;28;20428;-76
2022/07/11 08:21:27;;;;;;;5.93;3.00;;;;;;;;;;5051022;28;20371;-76
2022/07/11 08:23:54;;;;;;;4.43;3.20;;;;;;;;;;5050824;28;20453;-76
2022/07/11 08:26:20;;;;;;;4.93;2.60;;;;;;;;;;5050670;28;20429;-76
2022/07/11 08:28:46;;;;;;;4.00;3.20;;;;;;;;;;5050876;28;20415;-76
2022/07/11 08:31:12;;;;;;;4.13;2.87;;;;;;;;;;5050692;28;20765;-76
2022/07/11 08:33:38;;;;;;;4.37;2.60;;;;;;;;;;5048804;28;20926;-75
2022/07/11 08:36:06;;;;;;;4.53;3.33;;;;;;;;;;5050110;28;20448;-76
2022/07/11 08:38:32;;;;;;;5.17;3.40;;;;;;;;;;5050288;28;20500;-78
2022/07/11 08:40:58;;;;;;;4.60;3.90;;;;;;;;;;5050083;28;20419;-76
2022/07/11 08:43:28;;;;;;;7.97;5.33;;;;;;;;;;5049686;28;20413;-77
2022/07/11 08:45:55;;;;;;;6.57;5.90;;;;;;;;;;5050166;28;20481;-77
2022/07/11 08:48:21;;;;;;;6.90;6.20;;;;;;;;;;5050284;28;20434;-76
2022/07/11 08:50:48;;;;;;;6.10;5.50;;;;;;;;;;5049836;28;20401;-76
2022/07/11 08:53:14;;;;;;;7.00;6.40;;;;;;;;;;5049539;28;20409;-77
2022/07/11 08:55:40;;;;;;;10.93;9.00;;;;;;;;;;5050300;28;20456;-76
2022/07/11 08:58:07;;;;;;;12.67;11.37;;;;;;;;;;5050620;28;20392;-76
2022/07/11 09:00:34;;;;;;;10.60;9.57;;;;;;;;;;5050425;28;20744;-77
2022/07/11 09:03:00;;;;;;;13.17;11.87;;;;;;;;;;5050259;28;20749;-77
2022/07/11 09:05:28;;;;;;;18.70;16.83;;;;;;;;;;5050465;28;20513;-77
2022/07/11 09:07:54;;;;;;;15.47;13.70;;;;;;;;;;5050475;28;20420;-77
2022/07/11 09:10:20;;;;;;;13.77;12.50;;;;;;;;;;5050235;28;20408;-77
2022/07/11 09:13:06;;;;;;;12.37;10.50;;;;;;;;;;5050244;28;20415;-77
2022/07/11 09:15:39;;;;;;;10.90;10.00;;;;;;;;;;5050122;28;20468;-76
2022/07/11 09:18:28;;;;;;;9.43;8.63;;;;;;;;;;5050232;28;20508;-77
2022/07/11 09:26:29;;;;;;;7.33;5.67;;;;;;;;;;5049287;28;20436;-76
2022/07/11 09:28:58;;;;;;;8.03;7.33;;;;;;;;;;5050148;28;20472;-77
2022/07/11 09:31:27;;;;;;;10.30;6.70;;;;;;;;;;5048640;28;20416;-77
2022/07/11 09:34:01;;;;;;;8.70;6.97;;;;;;;;;;5049281;28;20456;-76
2022/07/11 09:36:36;;;;;;;6.53;5.97;;;;;;;;;;5049170;28;20947;-76
2022/07/11 09:39:03;;;;;;;6.50;4.47;;;;;;;;;;5049878;28;20397;-77
2022/07/11 09:41:33;;;;;;;5.20;4.70;;;;;;;;;;5049680;28;20430;-77
2022/07/11 09:44:13;;;;;;;5.43;4.90;;;;;;;;;;5049556;28;20409;-76
2022/07/11 09:46:40;;;;;;;6.30;4.50;;;;;;;;;;5049766;28;20856;-76
2022/07/11 09:49:07;;;;;;;9.20;3.67;;;;;;;;;;5049618;28;20512;-76
2022/07/11 09:51:33;;;;;;;5.73;4.60;;;;;;;;;;5049167;28;20481;-76
2022/07/11 09:53:59;;;;;;;4.77;3.97;;;;;;;;;;5049261;28;20934;-76
2022/07/11 09:56:51;;;;;;;4.03;3.70;;;;;;;;;;5048279;28;20407;-76
2022/07/11 09:59:18;;;;;;;5.40;4.90;;;;;;;;;;5049584;28;20481;-77
2022/07/11 10:01:45;;;;;;;8.20;4.63;;;;;;;;;;5049451;28;20416;-77
2022/07/11 10:04:11;;;;;;;5.30;4.90;;;;;;;;;;5049208;28;20404;-76
2022/07/11 10:06:37;;;;;;;9.47;5.90;;;;;;;;;;5049365;28;20503;-76
2022/07/11 10:09:04;;;;;;;5.80;4.97;;;;;;;;;;5049374;28;20383;-77
2022/07/11 10:11:31;;;;;;;4.10;3.70;;;;;;;;;;5049345;28;20462;-77
2022/07/11 10:13:59;;;;;;;6.33;2.73;;;;;;;;;;5049124;28;20425;-77
2022/07/11 10:16:31;;;;;;;6.10;3.10;;;;;;;;;;5049241;28;20433;-77
2022/07/11 10:19:03;;;;;;;4.67;3.40;;;;;;;;;;5049265;28;20382;-77
2022/07/11 10:21:29;;;;;;;4.93;3.80;;;;;;;;;;5049452;28;20409;-77
2022/07/11 10:24:01;;;;;;;5.10;4.70;;;;;;;;;;5049030;28;20378;-76
2022/07/11 10:26:37;;;;;;;4.80;4.40;;;;;;;;;;5048027;28;20432;-74
2022/07/11 10:29:08;;;;;;;5.80;5.30;;;;;;;;;;5049293;28;20403;-77
2022/07/11 10:31:34;;;;;;;6.77;3.87;;;;;;;;;;5048947;28;20431;-76
2022/07/11 10:34:02;;;;;;;4.60;3.73;;;;;;;;;;5048849;28;20819;-76
2022/07/11 10:36:29;;;;;;;5.10;3.80;;;;;;;;;;5048941;28;20406;-77
2022/07/11 10:39:16;;;;;;;12.43;3.90;;;;;;;;;;5049089;28;20387;-77
2022/07/11 10:41:43;;;;;;;3.23;2.73;;;;;;;;;;5049232;28;20479;-77
2022/07/11 10:44:09;;;;;;;2.73;2.50;;;;;;;;;;5048509;28;20387;-77
2022/07/11 10:46:35;;;;;;;3.10;2.40;;;;;;;;;;5048486;28;20826;-77
2022/07/11 10:49:01;;;;;;;2.70;2.50;;;;;;;;;;5051592;28;20544;-76
2022/07/11 10:51:37;;;;;;;3.10;2.80;;;;;;;;;;5052268;28;20436;-76
2022/07/11 10:54:18;;;;;;;3.93;2.27;;;;;;;;;;5051806;28;20528;-76
2022/07/11 10:56:51;;;;;;;3.07;2.03;;;;;;;;;;5052177;28;20920;-75
2022/07/11 10:59:19;;;;;;;1.93;1.73;;;;;;;;;;5052314;28;20408;-76
2022/07/11 11:02:05;;;;;;;4.13;2.40;;;;;;;;;;5052236;28;20431;-76
2022/07/11 11:04:49;;;;;;;5.93;2.50;;;;;;;;;;5052052;28;20387;-76
2022/07/11 11:07:34;;;;;;;2.63;1.90;;;;;;;;;;5052387;28;20486;-76
2022/07/11 11:10:01;;;;;;;3.80;2.40;;;;;;;;;;5051995;28;20383;-77
2022/07/11 11:12:46;;;;;;;13.07;2.13;;;;;;;;;;5052343;28;20436;-76
2022/07/11 11:15:31;;;;;;;2.43;2.23;;;;;;;;;;5050492;28;20773;-76
2022/07/11 11:17:57;;;;;;;2.30;2.00;;;;;;;;;;5051979;28;20458;-76
2022/07/11 11:20:32;;;;;;;3.90;2.07;;;;;;;;;;5051884;28;20419;-76
2022/07/11 11:23:10;;;;;;;2.73;1.73;;;;;;;;;;5051769;27;20818;-76
2022/07/11 11:25:36;;;;;;;1.93;1.60;;;;;;;;;;5051435;28;21123;-76
2022/07/11 11:28:03;;;;;;;2.80;1.90;;;;;;;;;;5051407;28;20755;-76
2022/07/11 11:30:30;;;;;;;2.90;1.50;;;;;;;;;;5051367;28;20424;-76
2022/07/11 11:32:56;;;;;;;4.97;1.87;;;;;;;;;;5050986;28;20870;-78
2022/07/11 11:35:22;;;;;;;3.83;1.93;;;;;;;;;;5051032;28;20846;-77
2022/07/11 11:37:49;;;;;;;4.20;1.50;;;;;;;;;;5051292;28;20405;-77
2022/07/11 11:40:15;;;;;;;3.10;1.50;;;;;;;;;;5051106;28;20463;-79
2022/07/11 11:42:41;;;;;;;7.80;1.50;;;;;;;;;;5050079;28;20379;-78
2022/07/11 11:45:07;;;;;;;1.60;1.50;;;;;;;;;;5050614;28;20460;-77
2022/07/11 11:47:36;;;;;;;2.87;1.80;;;;;;;;;;5051455;28;20450;-76
2022/07/11 11:50:02;;;;;;;1.37;1.00;;;;;;;;;;5051221;28;20443;-78
2022/07/11 11:52:28;;;;;;;1.50;1.10;;;;;;;;;;5051488;28;20471;-78
2022/07/11 11:54:55;;;;;;;3.03;1.20;;;;;;;;;;5051165;28;20507;-78
2022/07/11 11:57:22;;;;;;;1.47;1.20;;;;;;;;;;5051701;28;20383;-76
2022/07/11 11:59:50;;;;;;;1.67;1.00;;;;;;;;;;5050763;28;20409;-77
2022/07/11 12:02:21;;;;;;;2.00;1.13;;;;;;;;;;5051479;28;20803;-78
2022/07/11 12:04:47;;;;;;;3.20;1.63;;;;;;;;;;5050833;28;20428;-77
2022/07/11 12:07:13;;;;;;;3.23;1.60;;;;;;;;;;5051249;28;20512;-77
2022/07/11 12:09:55;;;;;;;2.17;1.50;;;;;;;;;;5051423;28;20383;-77
2022/07/11 12:15:08;;;;;;;3.50;1.57;;;;;;;;;;5050990;28;20675;-78
2022/07/11 12:17:35;;;;;;;1.87;1.10;;;;;;;;;;5051476;28;20508;-77
2022/07/11 12:20:01;;;;;;;1.50;1.33;;;;;;;;;;5051677;28;20457;-77
2022/07/11 12:22:27;;;;;;;2.80;1.23;;;;;;;;;;5051357;28;21027;-77
2022/07/11 12:24:54;;;;;;;3.07;1.57;;;;;;;;;;5050834;28;20501;-77
2022/07/11 12:27:19;;;;;;;1.77;1.00;;;;;;;;;;5051333;28;20470;-78
2022/07/11 12:29:50;;;;;;;3.30;1.00;;;;;;;;;;5051219;28;20507;-77
2022/07/11 12:32:17;;;;;;;2.20;1.90;;;;;;;;;;5051268;28;20539;-78
2022/07/11 12:34:44;;;;;;;4.50;3.13;;;;;;;;;;5050907;28;20468;-77
2022/07/11 12:37:10;;;;;;;3.77;3.57;;;;;;;;;;5051400;28;20386;-77
2022/07/11 12:39:40;;;;;;;3.73;3.43;;;;;;;;;;5051454;28;20379;-76
2022/07/11 12:42:25;;;;;;;3.70;3.40;;;;;;;;;;5051169;28;20401;-77
2022/07/11 12:45:08;;;;;;;4.60;3.00;;;;;;;;;;5051171;28;20504;-77
2022/07/11 12:47:44;;;;;;;4.80;2.97;;;;;;;;;;5052077;28;20416;-76
2022/07/11 12:50:19;;;;;;;4.67;2.60;;;;;;;;;;5050171;28;20790;-76
2022/07/11 12:52:47;;;;;;;4.33;2.30;;;;;;;;;;5050821;28;20516;-76
2022/07/11 12:55:39;;;;;;;2.80;2.20;;;;;;;;;;5050597;28;20903;-76
2022/07/11 12:58:05;;;;;;;5.63;2.30;;;;;;;;;;5051581;28;20455;-76
2022/07/11 13:00:32;;;;;;;3.27;2.37;;;;;;;;;;5051204;28;20383;-80
2022/07/11 13:02:58;;;;;;;2.70;1.83;;;;;;;;;;5049231;28;20416;-78
2022/07/11 13:05:24;;;;;;;2.50;1.80;;;;;;;;;;5050735;28;20414;-76
2022/07/11 13:10:50;;;;;;;1.63;1.53;;;;;;;;;;5050423;28;20400;-76
2022/07/11 13:13:19;;;;;;;2.40;1.90;;;;;;;;;;5048714;28;20405;-76
2022/07/11 13:15:47;;;;;;;3.17;1.97;;;;;;;;;;5050247;28;20969;-76
2022/07/11 13:18:13;;;;;;;2.37;1.90;;;;;;;;;;5050165;28;20885;-78
2022/07/11 13:20:40;;;;;;;1.87;1.60;;;;;;;;;;5050107;28;20409;-76
2022/07/11 13:23:09;;;;;;;4.73;2.20;;;;;;;;;;5049414;28;20977;-78
2022/07/11 13:25:35;;;;;;;3.57;2.23;;;;;;;;;;5046090;28;20501;-77
2022/07/11 13:28:01;;;;;;;3.30;2.17;;;;;;;;;;5048519;28;20408;-76
2022/07/11 13:30:30;;;;;;;3.90;1.57;;;;;;;;;;5047225;28;20478;-77
2022/07/11 13:32:57;;;;;;;3.43;1.50;;;;;;;;;;5049944;28;20460;-77
2022/07/11 13:35:23;;;;;;;2.30;1.90;;;;;;;;;;5049972;28;20476;-76
2022/07/11 13:37:52;;;;;;;2.43;1.57;;;;;;;;;;5050395;28;20848;-77
2022/07/11 13:40:19;;;;;;;1.67;1.57;;;;;;;;;;5050094;28;20803;-77
2022/07/11 13:42:46;;;;;;;2.53;1.37;;;;;;;;;;5049942;28;20420;-77
2022/07/11 13:45:13;;;;;;;2.70;1.67;;;;;;;;;;5049692;28;20415;-76
2022/07/11 13:47:40;;;;;;;4.40;1.77;;;;;;;;;;5049753;28;20430;-76
2022/07/11 13:50:06;;;;;;;1.40;1.30;;;;;;;;;;5049913;28;20391;-76
2022/07/11 13:52:32;;;;;;;1.43;1.33;;;;;;;;;;5050011;28;20524;-76
2022/07/11 13:54:58;;;;;;;1.47;0.93;;;;;;;;;;5049195;28;20487;-77
2022/07/11 13:57:24;;;;;;;2.67;1.60;;;;;;;;;;5049774;28;20428;-77
2022/07/11 13:59:51;;;;;;;2.40;1.50;;;;;;;;;;5049497;28;20492;-76
2022/07/11 14:02:17;;;;;;;3.87;1.60;;;;;;;;;;5049863;28;20409;-78
2022/07/11 14:04:43;;;;;;;2.60;1.33;;;;;;;;;;5049966;28;20416;-76
2022/07/11 14:07:11;;;;;;;1.73;1.30;;;;;;;;;;5049963;28;20416;-76
2022/07/11 14:09:38;;;;;;;1.90;1.40;;;;;;;;;;5050145;28;20405;-76
2022/07/11 14:12:04;;;;;;;2.00;1.40;;;;;;;;;;5050021;28;20391;-77
2022/07/11 14:14:32;;;;;;;2.70;1.10;;;;;;;;;;5048508;28;20547;-76
2022/07/11 14:16:58;;;;;;;2.97;1.23;;;;;;;;;;5049770;28;20802;-77
2022/07/11 14:19:24;;;;;;;4.23;1.40;;;;;;;;;;5049528;28;20412;-78
2022/07/11 14:21:50;;;;;;;1.77;1.30;;;;;;;;;;5049299;28;20461;-77
2022/07/11 14:24:16;;;;;;;1.67;1.33;;;;;;;;;;5052072;28;20375;-77
2022/07/11 14:26:42;;;;;;;1.73;1.10;;;;;;;;;;5053039;28;20442;-77
2022/07/11 14:29:08;;;;;;;5.23;1.10;;;;;;;;;;5053091;28;20409;-78
2022/07/11 14:31:34;;;;;;;3.23;1.10;;;;;;;;;;5052464;28;20519;-77
2022/07/11 14:34:00;;;;;;;5.00;1.30;;;;;;;;;;5052415;28;20575;-77
2022/07/11 14:36:27;;;;;;;2.53;1.20;;;;;;;;;;5052520;28;20459;-77
2022/07/11 14:38:53;;;;;;;2.20;1.30;;;;;;;;;;5052583;28;20406;-77
2022/07/11 14:41:19;;;;;;;1.57;1.10;;;;;;;;;;5052604;28;20404;-79
2022/07/11 14:43:46;;;;;;;2.37;1.57;;;;;;;;;;5052216;28;20471;-77
2022/07/11 14:46:12;;;;;;;2.50;1.57;;;;;;;;;;5052526;28;20954;-77
2022/07/11 14:48:39;;;;;;;2.67;1.10;;;;;;;;;;5052544;28;20408;-77
2022/07/11 14:51:05;;;;;;;2.00;1.37;;;;;;;;;;5052212;28;20823;-77
2022/07/11 14:53:31;;;;;;;2.00;1.13;;;;;;;;;;5051564;28;20402;-77
2022/07/11 14:55:57;;;;;;;1.40;1.27;;;;;;;;;;5051568;28;20576;-77